Time;durP1;ratioP1;P1;durP2;ratioP2;P2;SDS_P1;SDS_P2;PMS_P1;PMS_P2;Temp;Humidity;BMP_temperature;BMP_pressure;BME280_temperature;BME280_humidity;BME280_pressure;Samples;Min_cycle;Max_cycle;Signal;HPM_P1;HPM_P2
2023/04/17 00:00:35;;;;;;;19.92;18.00;;;;;;;8.38;100.00;102504.47;5084829;28;20012;-61
2023/04/17 00:03:00;;;;;;;21.88;19.58;;;;;;;8.37;100.00;102502.78;5084263;28;20402;-62
2023/04/17 00:05:26;;;;;;;20.67;18.50;;;;;;;8.35;100.00;102500.16;5082816;28;20028;-62
2023/04/17 00:07:53;;;;;;;21.15;19.05;;;;;;;8.34;100.00;102509.41;5083622;28;20024;-63
2023/04/17 00:10:18;;;;;;;20.52;18.52;;;;;;;8.30;100.00;102499.81;5084036;28;20509;-63
2023/04/17 00:12:44;;;;;;;20.08;17.92;;;;;;;8.31;100.00;102502.41;5085741;28;20099;-62
2023/04/17 00:15:09;;;;;;;20.85;18.70;;;;;;;8.30;100.00;102494.34;5085964;28;20043;-62
2023/04/17 00:17:35;;;;;;;21.40;19.35;;;;;;;8.30;100.00;102492.47;5084235;28;20064;-62
2023/04/17 00:20:00;;;;;;;22.23;20.02;;;;;;;8.29;100.00;102495.38;5084762;28;20028;-63
2023/04/17 00:22:26;;;;;;;21.80;19.58;;;;;;;8.24;100.00;102490.44;5084734;28;20035;-63
2023/04/17 00:24:51;;;;;;;21.55;19.00;;;;;;;8.20;100.00;102494.53;5084910;28;20029;-63
2023/04/17 00:27:16;;;;;;;21.63;19.23;;;;;;;8.19;100.00;102492.84;5082980;28;20514;-62
2023/04/17 00:29:41;;;;;;;21.00;18.88;;;;;;;8.19;100.00;102492.00;5084710;28;20085;-62
2023/04/17 00:32:07;;;;;;;21.60;19.38;;;;;;;8.16;100.00;102490.47;5082937;28;20031;-63
2023/04/17 00:34:32;;;;;;;21.92;19.63;;;;;;;8.19;100.00;102495.59;5083182;28;20024;-62
2023/04/17 00:36:58;;;;;;;20.92;18.63;;;;;;;8.17;100.00;102491.31;5084254;28;20506;-62
2023/04/17 00:39:23;;;;;;;21.30;19.13;;;;;;;8.18;100.00;102495.75;5083739;28;20059;-62
2023/04/17 00:41:49;;;;;;;21.88;19.67;;;;;;;8.20;100.00;102488.22;5083066;28;20028;-62
2023/04/17 00:44:14;;;;;;;21.70;19.45;;;;;;;8.19;100.00;102486.53;5082788;28;20039;-62
2023/04/17 00:46:40;;;;;;;21.83;19.25;;;;;;;8.19;100.00;102481.91;5085106;28;20500;-62
2023/04/17 00:49:05;;;;;;;21.35;19.15;;;;;;;8.21;100.00;102473.50;5083870;28;20035;-62
2023/04/17 00:51:31;;;;;;;22.00;19.70;;;;;;;8.17;100.00;102477.66;5085527;28;20028;-62
2023/04/17 00:53:58;;;;;;;21.42;19.33;;;;;;;8.21;100.00;102481.72;5084318;28;20118;-62
2023/04/17 00:56:24;;;;;;;21.37;19.17;;;;;;;8.20;100.00;102480.84;5086445;28;20040;-62
2023/04/17 00:58:49;;;;;;;22.20;20.00;;;;;;;8.20;100.00;102478.13;5083216;28;20028;-62
2023/04/17 01:01:16;;;;;;;21.67;19.55;;;;;;;8.19;100.00;102481.03;5084745;28;20080;-62
2023/04/17 01:03:42;;;;;;;21.73;19.63;;;;;;;8.21;100.00;102478.97;5081498;28;20046;-63
2023/04/17 01:06:07;;;;;;;21.88;19.67;;;;;;;8.20;100.00;102477.28;5085602;28;20024;-63
2023/04/17 01:08:40;;;;;;;20.67;18.58;;;;;;;8.21;100.00;102482.59;5065596;28;20060;-62
2023/04/17 01:11:05;;;;;;;20.42;17.58;;;;;;;8.17;100.00;102481.22;5083950;28;20032;-62
2023/04/17 01:13:31;;;;;;;20.27;18.40;;;;;;;8.17;100.00;102477.66;5081492;28;20093;-62
2023/04/17 01:15:56;;;;;;;21.52;19.33;;;;;;;8.17;100.00;102481.22;5080115;28;20568;-62
2023/04/17 01:18:21;;;;;;;20.52;18.52;;;;;;;8.15;100.00;102480.53;5082038;28;20082;-62
2023/04/17 01:20:47;;;;;;;19.73;17.70;;;;;;;8.16;100.00;102476.78;5085006;28;20442;-62
2023/04/17 01:23:12;;;;;;;19.83;17.83;;;;;;;8.16;100.00;102482.25;5083129;28;20043;-64
2023/04/17 01:25:37;;;;;;;20.73;18.67;;;;;;;8.15;100.00;102480.53;5080945;28;20073;-62
2023/04/17 01:28:03;;;;;;;21.08;18.83;;;;;;;8.17;100.00;102488.59;5083042;28;20471;-63
2023/04/17 01:30:28;;;;;;;19.70;17.73;;;;;;;8.17;100.00;102483.13;5082863;28;20149;-62
2023/04/17 01:32:54;;;;;;;20.25;18.15;;;;;;;8.15;100.00;102483.25;5083227;28;20693;-62
2023/04/17 01:35:20;;;;;;;20.33;18.15;;;;;;;8.15;100.00;102486.00;5081830;28;20055;-62
2023/04/17 01:37:45;;;;;;;19.83;17.73;;;;;;;8.16;100.00;102486.84;5080646;28;20027;-62
2023/04/17 01:40:11;;;;;;;19.98;17.85;;;;;;;8.12;100.00;102483.63;5082363;28;20027;-62
2023/04/17 01:42:36;;;;;;;19.48;17.58;;;;;;;8.08;100.00;102485.00;5083436;28;20033;-63
2023/04/17 01:45:02;;;;;;;18.67;16.70;;;;;;;8.07;100.00;102484.16;5084525;28;20028;-62
2023/04/17 01:47:27;;;;;;;19.15;17.02;;;;;;;8.07;100.00;102484.16;5084510;28;20181;-62
2023/04/17 01:49:53;;;;;;;19.88;17.85;;;;;;;8.08;100.00;102479.53;5083926;28;20028;-62
2023/04/17 01:52:18;;;;;;;18.95;16.95;;;;;;;8.06;100.00;102485.19;5085465;28;20482;-62
2023/04/17 01:54:43;;;;;;;19.98;17.98;;;;;;;8.06;100.00;102481.59;5081760;28;20052;-62
2023/04/17 01:57:08;;;;;;;19.27;17.33;;;;;;;8.08;100.00;102485.00;5062409;28;20026;-63
2023/04/17 01:59:34;;;;;;;19.70;17.70;;;;;;;8.08;100.00;102490.47;5079165;28;20028;-62
2023/04/17 02:01:59;;;;;;;19.15;17.23;;;;;;;8.07;100.00;102486.91;5082405;28;20111;-62
2023/04/17 02:04:24;;;;;;;18.92;17.08;;;;;;;8.06;100.00;102489.81;5065262;28;20032;-62
2023/04/17 02:06:50;;;;;;;19.80;17.77;;;;;;;8.05;100.00;102490.81;5078639;28;20023;-62
2023/04/17 02:09:15;;;;;;;20.20;18.20;;;;;;;8.04;100.00;102486.38;5080984;28;20359;-62
2023/04/17 02:11:40;;;;;;;19.05;17.15;;;;;;;8.01;100.00;102489.47;5081478;28;20032;-63
2023/04/17 02:14:06;;;;;;;18.80;16.80;;;;;;;8.01;100.00;102489.47;5082295;28;20036;-63
2023/04/17 02:16:31;;;;;;;19.00;17.05;;;;;;;8.00;100.00;102495.94;5085580;28;20685;-62
2023/04/17 02:18:56;;;;;;;20.27;17.88;;;;;;;7.99;100.00;102486.91;5079638;28;20685;-62
2023/04/17 02:21:22;;;;;;;19.00;17.00;;;;;;;7.99;100.00;102492.38;5085312;28;20052;-62
2023/04/17 02:23:47;;;;;;;19.20;17.25;;;;;;;7.98;100.00;102489.81;5084205;28;20366;-62
2023/04/17 02:26:13;;;;;;;19.92;17.83;;;;;;;7.96;100.00;102491.88;5081114;28;20035;-62
2023/04/17 02:28:38;;;;;;;18.50;16.58;;;;;;;7.96;100.00;102494.63;5082349;28;20145;-62
2023/04/17 02:31:07;;;;;;;19.20;17.30;;;;;;;7.95;100.00;102490.16;5081268;28;20020;-62
2023/04/17 02:33:35;;;;;;;18.85;16.95;;;;;;;7.94;100.00;102488.44;5083239;28;20145;-62
2023/04/17 02:36:00;;;;;;;19.23;17.13;;;;;;;7.94;100.00;102488.44;5083221;28;20055;-61
2023/04/17 02:38:28;;;;;;;19.40;17.48;;;;;;;7.95;100.00;102491.00;5083480;28;20040;-62
2023/04/17 02:40:54;;;;;;;;;;;;;;;8.04;100.00;102491.84;5105035;22;20053;-60
2023/04/17 02:43:19;;;;;;;19.15;17.25;;;;;;;7.95;100.00;102484.69;5021558;28;19939;-60
2023/04/17 02:45:44;;;;;;;19.75;17.58;;;;;;;7.93;100.00;102492.22;5022983;28;20079;-60
2023/04/17 02:48:10;;;;;;;19.52;17.48;;;;;;;7.93;100.00;102487.59;5024501;28;20033;-60
2023/04/17 02:50:35;;;;;;;21.20;18.92;;;;;;;7.93;100.00;102492.22;5023160;28;20059;-60
2023/04/17 02:53:00;;;;;;;20.55;18.45;;;;;;;7.89;100.00;102490.84;5006292;28;20418;-60
2023/04/17 02:55:25;;;;;;;21.00;18.90;;;;;;;7.86;100.00;102494.78;5023733;28;20036;-60
2023/04/17 02:57:51;;;;;;;20.60;18.50;;;;;;;7.82;100.00;102495.31;5023261;28;20069;-60
2023/04/17 03:00:16;;;;;;;20.45;18.33;;;;;;;7.80;100.00;102487.25;5022671;28;20041;-60
2023/04/17 03:02:41;;;;;;;23.50;18.70;;;;;;;7.80;100.00;102496.31;5027591;28;20112;-60
2023/04/17 03:05:08;;;;;;;21.85;19.55;;;;;;;7.77;100.00;102495.81;5025258;28;20029;-60
2023/04/17 03:07:33;;;;;;;22.10;19.70;;;;;;;7.76;100.00;102505.06;5027561;28;20033;-60
2023/04/17 03:09:58;;;;;;;20.70;18.52;;;;;;;7.75;100.00;102501.44;5026556;28;20035;-60
2023/04/17 03:12:24;;;;;;;21.73;19.15;;;;;;;7.75;100.00;102508.78;5025429;28;20021;-60
2023/04/17 03:14:50;;;;;;;21.85;18.75;;;;;;;7.75;100.00;102508.78;5025112;28;20452;-60
2023/04/17 03:17:16;;;;;;;20.58;18.45;;;;;;;7.75;100.00;102508.78;5027130;28;20034;-61
2023/04/17 03:19:41;;;;;;;20.90;18.70;;;;;;;7.76;100.00;102508.66;5027864;28;20021;-60
2023/04/17 03:22:06;;;;;;;19.33;17.23;;;;;;;7.77;100.00;102513.09;5018947;28;20039;-60
2023/04/17 03:24:32;;;;;;;21.30;18.42;;;;;;;7.73;100.00;102506.25;5026484;28;20075;-60
2023/04/17 03:26:58;;;;;;;19.83;17.90;;;;;;;7.73;100.00;102513.59;5024221;28;20025;-60
2023/04/17 03:29:23;;;;;;;20.02;17.88;;;;;;;7.67;100.00;102509.66;5019890;28;20518;-60
2023/04/17 03:31:49;;;;;;;19.90;17.90;;;;;;;7.65;100.00;102506.22;5021145;28;20111;-60
2023/04/17 03:34:15;;;;;;;19.73;17.73;;;;;;;7.66;100.00;102507.97;5019680;28;20040;-60
2023/04/17 03:36:40;;;;;;;22.10;19.90;;;;;;;7.66;100.00;102505.22;5027608;28;20080;-60
2023/04/17 03:39:05;;;;;;;20.48;18.38;;;;;;;7.68;100.00;102505.91;5026624;28;20084;-60
2023/04/17 03:41:31;;;;;;;20.40;18.17;;;;;;;7.69;100.00;102501.28;5026666;28;20045;-60
2023/04/17 03:43:56;;;;;;;20.73;18.63;;;;;;;7.69;100.00;102510.34;5027989;28;20403;-62
2023/04/17 03:46:21;;;;;;;21.60;19.30;;;;;;;7.68;100.00;102505.06;5024714;28;20036;-62
2023/04/17 03:48:46;;;;;;;22.52;19.88;;;;;;;7.68;100.00;102499.59;5027101;28;20360;-62
2023/04/17 03:51:12;;;;;;;22.38;20.08;;;;;;;7.69;100.00;102502.13;5027052;28;20037;-63
2023/04/17 03:53:37;;;;;;;21.70;19.40;;;;;;;7.67;100.00;102503.34;5020668;28;20534;-62
2023/04/17 03:56:03;;;;;;;22.50;20.13;;;;;;;7.66;100.00;102507.13;5028566;28;20032;-62
2023/04/17 03:58:28;;;;;;;22.35;20.08;;;;;;;7.68;100.00;102503.16;5028544;28;20051;-62
2023/04/17 04:00:54;;;;;;;21.85;19.08;;;;;;;7.69;100.00;102501.28;5026473;28;20025;-62
2023/04/17 04:03:22;;;;;;;20.65;18.35;;;;;;;7.66;100.00;102504.38;5024264;28;20076;-62
2023/04/17 04:05:47;;;;;;;20.95;18.75;;;;;;;7.66;100.00;102502.50;5019031;28;20462;-62
2023/04/17 04:08:13;;;;;;;21.40;19.20;;;;;;;7.68;100.00;102505.06;5025681;28;20069;-62
2023/04/17 04:10:38;;;;;;;21.85;19.58;;;;;;;7.64;100.00;102509.16;5007435;28;20078;-62
2023/04/17 04:13:03;;;;;;;21.40;19.17;;;;;;;7.62;100.00;102512.06;5026730;28;20026;-62
2023/04/17 04:15:29;;;;;;;22.17;19.83;;;;;;;7.58;100.00;102507.94;5007240;28;20017;-63
2023/04/17 04:17:54;;;;;;;21.90;18.58;;;;;;;7.59;100.00;102500.59;5023045;28;20065;-62
2023/04/17 04:20:21;;;;;;;21.50;19.10;;;;;;;7.59;100.00;102501.44;5024299;28;20031;-62
2023/04/17 04:22:47;;;;;;;21.60;19.20;;;;;;;7.58;100.00;102509.84;5023582;28;20146;-62
2023/04/17 04:25:13;;;;;;;22.00;19.67;;;;;;;7.58;100.00;102516.16;5025548;28;20129;-64
2023/04/17 04:27:38;;;;;;;21.90;19.20;;;;;;;7.53;100.00;102516.66;5026285;28;20116;-62
2023/04/17 04:30:04;;;;;;;22.52;20.13;;;;;;;7.50;100.00;102513.41;5027047;28;20418;-62
2023/04/17 04:32:29;;;;;;;22.55;20.15;;;;;;;7.51;100.00;102515.13;5023444;28;20110;-62
2023/04/17 04:34:57;;;;;;;22.77;20.38;;;;;;;7.49;100.00;102517.16;5022480;28;20075;-62
2023/04/17 04:37:28;;;;;;;22.48;20.08;;;;;;;7.47;100.00;102514.63;5007196;28;20026;-62
2023/04/17 04:40:00;;;;;;;22.20;19.77;;;;;;;7.46;100.00;102518.38;5025274;28;20108;-62
2023/04/17 04:42:27;;;;;;;24.25;20.40;;;;;;;7.48;100.00;102521.78;5023597;28;20087;-62
2023/04/17 04:44:52;;;;;;;22.90;20.45;;;;;;;7.49;100.00;102531.69;5024441;28;20025;-63
2023/04/17 04:47:18;;;;;;;24.00;21.50;;;;;;;7.51;100.00;102523.34;5007189;28;20309;-62
2023/04/17 04:49:44;;;;;;;25.02;22.45;;;;;;;7.46;100.00;102525.72;5025240;28;20375;-62
2023/04/17 04:52:09;;;;;;;24.15;21.45;;;;;;;7.45;100.00;102527.59;5024779;28;20042;-62
2023/04/17 04:54:35;;;;;;;23.67;21.25;;;;;;;7.45;100.00;102526.72;5006209;28;20388;-62
2023/04/17 04:57:00;;;;;;;25.15;21.52;;;;;;;7.50;100.00;102519.75;5005990;28;20465;-62
2023/04/17 04:59:25;;;;;;;23.38;20.90;;;;;;;7.51;100.00;102523.34;5006034;28;20108;-62
2023/04/17 05:01:51;;;;;;;25.35;22.65;;;;;;;7.51;100.00;102526.94;5005965;28;20465;-62
2023/04/17 05:04:16;;;;;;;23.50;21.05;;;;;;;7.52;100.00;102523.16;5004679;28;20365;-61
2023/04/17 05:06:41;;;;;;;24.60;22.00;;;;;;;7.54;100.00;102528.44;5006307;28;20028;-62
2023/04/17 05:09:07;;;;;;;24.70;22.13;;;;;;;7.54;100.00;102531.19;5012629;28;20026;-62
2023/04/17 05:11:32;;;;;;;23.23;20.83;;;;;;;7.51;100.00;102532.41;5024838;28;20424;-62
2023/04/17 05:13:58;;;;;;;24.42;21.83;;;;;;;7.50;100.00;102541.63;5025224;28;20101;-61
2023/04/17 05:16:23;;;;;;;22.90;20.52;;;;;;;7.54;100.00;102536.66;5025055;28;20056;-62
2023/04/17 05:18:48;;;;;;;23.60;21.13;;;;;;;7.53;100.00;102540.41;5023625;28;20663;-62
2023/04/17 05:21:14;;;;;;;24.65;22.05;;;;;;;7.54;100.00;102542.13;5024716;28;20068;-62
2023/04/17 05:23:39;;;;;;;24.67;22.02;;;;;;;7.53;100.00;102548.63;5024918;28;20144;-62
2023/04/17 05:26:04;;;;;;;23.40;20.90;;;;;;;7.55;100.00;102552.03;5006689;28;20036;-62
2023/04/17 05:28:30;;;;;;;25.15;22.55;;;;;;;7.61;100.00;102548.63;5024666;28;20026;-62
2023/04/17 05:30:56;;;;;;;25.42;22.80;;;;;;;7.63;100.00;102551.19;5024905;28;20337;-62
2023/04/17 05:33:21;;;;;;;24.48;21.85;;;;;;;7.66;100.00;102554.44;5023739;28;20037;-62
2023/04/17 05:35:46;;;;;;;25.52;22.90;;;;;;;7.65;100.00;102549.97;5024927;28;20476;-62
2023/04/17 05:38:12;;;;;;;26.17;23.48;;;;;;;7.66;100.00;102559.94;5024637;28;20100;-62
2023/04/17 05:40:37;;;;;;;25.65;23.05;;;;;;;7.67;100.00;102555.31;5024668;28;20045;-62
2023/04/17 05:43:07;;;;;;;25.10;22.25;;;;;;;7.64;100.00;102553.75;5024799;28;20030;-62
2023/04/17 05:45:32;;;;;;;24.95;22.38;;;;;;;7.66;100.00;102554.44;5024552;28;20037;-62
2023/04/17 05:47:58;;;;;;;25.27;22.58;;;;;;;7.67;100.00;102556.16;5023610;28;20410;-63
2023/04/17 05:50:23;;;;;;;24.88;22.27;;;;;;;7.88;100.00;102554.78;5024519;28;20025;-61
2023/04/17 05:52:48;;;;;;;25.02;22.42;;;;;;;7.63;100.00;102559.41;5024381;28;20467;-62
2023/04/17 05:55:13;;;;;;;25.73;23.02;;;;;;;7.59;100.00;102561.59;5024135;28;20025;-62
2023/04/17 05:57:39;;;;;;;25.92;23.40;;;;;;;7.62;100.00;102557.69;5024713;28;20025;-63
2023/04/17 06:00:09;;;;;;;24.95;22.25;;;;;;;7.61;100.00;102559.56;5024647;28;20555;-61
2023/04/17 06:02:36;;;;;;;28.42;23.20;;;;;;;7.61;100.00;102554.09;5023498;28;20033;-62
2023/04/17 06:05:05;;;;;;;26.13;23.42;;;;;;;7.65;100.00;102565.53;5024087;28;20529;-62
2023/04/17 06:07:34;;;;;;;26.13;23.35;;;;;;;7.67;100.00;102569.84;5023474;28;20536;-62
2023/04/17 06:10:00;;;;;;;22.08;18.20;;;;;;;8.01;100.00;102571.56;5024233;28;20029;-62
2023/04/17 06:12:26;;;;;;;27.10;24.20;;;;;;;7.79;100.00;102560.25;5006228;28;20187;-62
2023/04/17 06:14:51;;;;;;;24.63;21.90;;;;;;;7.77;100.00;102569.66;5024425;28;20025;-62
2023/04/17 06:17:16;;;;;;;25.80;23.10;;;;;;;7.63;100.00;102568.47;5023813;28;20030;-62
2023/04/17 06:19:41;;;;;;;27.40;24.20;;;;;;;7.60;100.00;102578.88;5023038;28;20439;-62
2023/04/17 06:22:07;;;;;;;25.38;22.23;;;;;;;7.69;100.00;102580.59;5024023;28;20032;-62
2023/04/17 06:24:32;;;;;;;21.45;16.58;;;;;;;7.83;100.00;102581.81;5005721;28;20434;-62
2023/04/17 06:26:57;;;;;;;22.70;18.67;;;;;;;8.03;100.00;102588.66;5005884;28;20029;-62
2023/04/17 06:29:23;;;;;;;26.80;23.98;;;;;;;7.62;100.00;102587.78;5024048;28;20387;-61
2023/04/17 06:31:48;;;;;;;26.35;23.65;;;;;;;7.57;100.00;102581.97;5024214;28;20464;-62
2023/04/17 06:34:14;;;;;;;24.58;20.60;;;;;;;7.57;100.00;102590.16;5022408;28;20120;-62
2023/04/17 06:36:39;;;;;;;26.77;23.95;;;;;;;7.57;100.00;102585.53;5027352;28;20484;-62
2023/04/17 06:39:05;;;;;;;26.52;23.73;;;;;;;7.66;100.00;102589.16;5027725;28;20087;-62
2023/04/17 06:41:30;;;;;;;24.67;22.17;;;;;;;7.84;100.00;102586.25;5027841;28;20037;-62
2023/04/17 06:43:55;;;;;;;24.42;21.27;;;;;;;7.99;100.00;102595.50;5027567;28;20036;-62
2023/04/17 06:46:21;;;;;;;24.67;22.17;;;;;;;7.83;100.00;102598.22;5027810;28;20044;-62
2023/04/17 06:48:48;;;;;;;19.58;16.55;;;;;;;7.81;100.00;102592.94;5027161;28;20021;-62
2023/04/17 06:51:13;;;;;;;25.60;22.90;;;;;;;7.95;100.00;102599.59;5027222;28;20033;-62
2023/04/17 06:53:39;;;;;;;26.27;23.50;;;;;;;7.69;100.00;102599.72;5027737;28;20041;-62
2023/04/17 06:56:04;;;;;;;26.13;23.38;;;;;;;7.70;100.00;102605.03;5028096;28;20322;-62
2023/04/17 06:58:30;;;;;;;25.75;22.98;;;;;;;7.75;100.00;102602.63;5027170;28;20131;-62
2023/04/17 07:00:55;;;;;;;25.42;22.88;;;;;;;7.76;100.00;102600.78;5027850;28;20468;-63
2023/04/17 07:03:21;;;;;;;24.08;21.50;;;;;;;7.78;100.00;102609.66;5026977;28;20049;-62
2023/04/17 07:05:46;;;;;;;25.83;23.17;;;;;;;7.78;100.00;102604.19;5027592;28;20064;-62
2023/04/17 07:08:12;;;;;;;25.08;22.58;;;;;;;7.78;100.00;102604.19;5027797;28;20326;-62
2023/04/17 07:10:37;;;;;;;25.13;22.42;;;;;;;7.78;100.00;102610.53;5027578;28;20044;-62
2023/04/17 07:13:02;;;;;;;25.63;23.10;;;;;;;7.76;100.00;102618.06;5017636;28;20041;-62
2023/04/17 07:15:29;;;;;;;24.80;22.20;;;;;;;7.76;100.00;102623.53;5026809;28;20124;-61
2023/04/17 07:17:54;;;;;;;26.80;24.10;;;;;;;7.85;100.00;102627.09;5026523;28;20419;-62
2023/04/17 07:20:20;;;;;;;26.38;23.20;;;;;;;7.91;100.00;102634.66;5027007;28;20017;-62
2023/04/17 07:22:46;;;;;;;26.90;24.15;;;;;;;8.02;100.00;102626.09;5026597;28;20080;-62
2023/04/17 07:25:11;;;;;;;25.83;23.23;;;;;;;8.11;100.00;102629.72;5027570;28;20039;-62
2023/04/17 07:27:38;;;;;;;25.48;22.88;;;;;;;8.12;100.00;102627.81;5026703;28;20109;-62
2023/04/17 07:30:06;;;;;;;25.30;22.70;;;;;;;8.10;100.00;102636.19;5026936;28;20021;-62
2023/04/17 07:32:31;;;;;;;25.40;22.77;;;;;;;8.11;100.00;102637.03;5026156;28;20124;-62
2023/04/17 07:34:56;;;;;;;24.48;21.98;;;;;;;8.10;100.00;102636.19;5026695;28;20140;-62
2023/04/17 07:37:22;;;;;;;23.23;20.92;;;;;;;8.07;100.00;102640.13;5026239;28;20511;-62
2023/04/17 07:39:49;;;;;;;23.02;20.65;;;;;;;8.18;100.00;102638.94;5026862;28;20029;-62
2023/04/17 07:42:15;;;;;;;23.42;21.15;;;;;;;8.11;100.00;102643.41;5025989;28;20037;-62
2023/04/17 07:44:41;;;;;;;22.98;20.70;;;;;;;8.10;100.00;102641.66;5026847;28;20049;-62
2023/04/17 07:47:06;;;;;;;22.73;20.50;;;;;;;8.15;100.00;102638.41;5025076;28;20052;-62
2023/04/17 07:49:32;;;;;;;23.35;21.05;;;;;;;8.19;100.00;102640.66;5025112;28;20076;-62
2023/04/17 07:51:57;;;;;;;23.02;20.80;;;;;;;8.22;100.00;102640.31;5026541;28;20025;-62
2023/04/17 07:54:22;;;;;;;23.33;20.98;;;;;;;8.26;100.00;102646.28;5025887;28;20029;-62
2023/04/17 07:56:48;;;;;;;22.73;20.42;;;;;;;8.28;100.00;102650.56;5026483;28;20330;-62
2023/04/17 07:59:13;;;;;;;22.83;20.42;;;;;;;8.41;100.00;102647.31;5026241;28;20037;-63
2023/04/17 08:01:39;;;;;;;23.70;21.20;;;;;;;8.41;100.00;102649.22;5026339;28;20051;-62
2023/04/17 08:04:05;;;;;;;23.15;20.75;;;;;;;8.42;100.00;102650.94;5025585;28;20029;-62
2023/04/17 08:06:31;;;;;;;22.25;19.90;;;;;;;8.42;100.00;102646.31;5026065;28;20019;-62
2023/04/17 08:08:58;;;;;;;23.20;20.90;;;;;;;8.55;100.00;102657.59;5025297;28;20080;-62
2023/04/17 08:11:24;;;;;;;22.87;20.57;;;;;;;8.65;100.00;102651.06;5025812;28;20025;-62
2023/04/17 08:13:49;;;;;;;22.58;20.33;;;;;;;8.65;100.00;102646.44;5025800;28;20307;-62
2023/04/17 08:16:14;;;;;;;21.60;19.48;;;;;;;8.70;100.00;102652.25;5025627;28;20237;-63
2023/04/17 08:18:40;;;;;;;23.10;20.80;;;;;;;8.68;100.00;102650.75;5025570;28;20087;-62
2023/04/17 08:21:07;;;;;;;18.55;16.23;;;;;;;8.96;100.00;102649.28;5026085;28;20423;-62
2023/04/17 08:23:32;;;;;;;23.55;21.25;;;;;;;8.72;100.00;102652.97;5025482;28;20056;-62
2023/04/17 08:25:58;;;;;;;22.20;20.00;;;;;;;9.19;100.00;102643.91;5025736;28;20586;-63
2023/04/17 08:28:23;;;;;;;22.80;20.48;;;;;;;8.97;100.00;102645.53;5025612;28;20025;-62
2023/04/17 08:30:49;;;;;;;23.17;20.88;;;;;;;9.03;100.00;102643.97;5025649;28;20486;-63
2023/04/17 08:33:16;;;;;;;23.27;21.00;;;;;;;9.13;100.00;102644.63;5024146;28;20377;-62
2023/04/17 08:35:42;;;;;;;16.75;11.93;;;;;;;9.39;100.00;102638.00;5026359;28;20369;-62
2023/04/17 08:38:09;;;;;;;22.95;20.70;;;;;;;9.19;100.00;102648.53;5025812;28;20021;-62
2023/04/17 08:40:34;;;;;;;19.67;17.58;;;;;;;9.32;100.00;102648.81;5025310;28;20041;-62
2023/04/17 08:43:01;;;;;;;22.33;20.13;;;;;;;9.49;100.00;102649.59;5025605;28;20051;-63
2023/04/17 08:45:26;;;;;;;22.25;20.05;;;;;;;9.46;100.00;102644.47;5025300;28;20029;-62
2023/04/17 08:47:51;;;;;;;22.42;20.23;;;;;;;9.64;100.00;102649.69;5024037;28;20372;-62
2023/04/17 08:50:20;;;;;;;22.95;20.65;;;;;;;9.53;100.00;102649.06;5025273;28;20510;-62
2023/04/17 08:52:47;;;;;;;23.13;20.90;;;;;;;9.67;100.00;102650.16;5025453;28;20039;-63
2023/04/17 08:55:18;;;;;;;23.25;20.95;;;;;;;9.64;100.00;102653.28;5025025;28;20035;-64
2023/04/17 08:57:52;;;;;;;17.98;16.08;;;;;;;9.96;100.00;102652.22;5024925;28;20392;-62
2023/04/17 09:00:28;;;;;;;21.17;19.08;;;;;;;9.58;100.00;102654.88;5025015;28;20044;-62
2023/04/17 09:02:55;;;;;;;22.95;20.75;;;;;;;9.54;100.00;102656.25;5024455;28;20474;-62
2023/04/17 09:05:22;;;;;;;23.52;21.08;;;;;;;9.63;100.00;102651.59;5025069;28;20036;-62
2023/04/17 09:08:06;;;;;;;22.27;20.15;;;;;;;9.96;100.00;102657.69;5024121;28;20022;-62
2023/04/17 09:10:40;;;;;;;19.55;16.83;;;;;;;10.45;100.00;102651.00;5024870;28;20036;-62
2023/04/17 09:13:06;;;;;;;19.30;17.30;;;;;;;10.59;97.14;102655.66;5023351;28;20029;-62
2023/04/17 09:15:32;;;;;;;22.63;20.38;;;;;;;10.45;100.00;102656.50;5044918;28;20357;-62
2023/04/17 09:17:58;;;;;;;17.63;14.93;;;;;;;10.83;99.68;102660.06;5032571;28;20026;-63
2023/04/17 09:20:23;;;;;;;22.35;20.05;;;;;;;11.03;100.00;102649.34;5024432;28;20048;-62
2023/04/17 09:22:57;;;;;;;22.75;20.48;;;;;;;11.20;99.45;102650.00;5024984;28;20463;-62
2023/04/17 09:25:25;;;;;;;21.85;19.75;;;;;;;11.67;98.53;102647.66;5024718;28;20439;-62
2023/04/17 09:27:50;;;;;;;20.52;18.58;;;;;;;12.16;93.99;102651.56;5024405;28;20022;-62
2023/04/17 09:30:15;;;;;;;21.13;19.02;;;;;;;12.53;91.27;102642.19;5024233;28;20037;-62
2023/04/17 09:32:41;;;;;;;19.92;18.02;;;;;;;12.84;86.65;102649.19;5024200;28;20348;-63
2023/04/17 09:35:06;;;;;;;19.60;17.60;;;;;;;13.34;84.37;102645.25;5024488;28;20115;-63
2023/04/17 09:37:55;;;;;;;19.45;17.65;;;;;;;14.01;84.31;102646.31;5024019;28;20563;-63
2023/04/17 09:40:21;;;;;;;19.38;17.55;;;;;;;14.42;79.84;102643.38;5023673;28;20041;-63
2023/04/17 09:43:04;;;;;;;17.73;15.88;;;;;;;14.29;77.01;102646.13;5024379;28;20041;-62
2023/04/17 09:45:34;;;;;;;18.10;16.40;;;;;;;13.69;78.14;102636.91;5024427;28;20392;-63
2023/04/17 09:48:00;;;;;;;19.08;17.15;;;;;;;14.02;76.85;102643.34;5023642;28;20496;-62
2023/04/17 09:50:26;;;;;;;18.75;16.85;;;;;;;14.79;77.53;102632.75;5023677;28;20017;-63
2023/04/17 09:52:53;;;;;;;17.15;15.38;;;;;;;15.05;72.37;102631.84;5023914;28;20087;-63
2023/04/17 09:55:23;;;;;;;17.85;15.85;;;;;;;15.43;70.95;102631.94;5019713;28;20026;-62
2023/04/17 09:57:52;;;;;;;17.67;15.88;;;;;;;15.13;69.26;102633.53;5017232;28;20583;-63
2023/04/17 10:00:20;;;;;;;19.27;17.48;;;;;;;15.55;69.48;102644.00;5018161;28;20048;-63
2023/04/17 10:02:50;;;;;;;19.17;17.27;;;;;;;15.92;66.75;102646.22;5018528;28;20412;-63
2023/04/17 10:05:20;;;;;;;18.73;16.88;;;;;;;15.31;67.82;102634.53;5022457;28;20040;-63
2023/04/17 10:07:46;;;;;;;18.70;16.85;;;;;;;15.39;69.28;102633.44;5015448;28;20612;-63
2023/04/17 10:10:32;;;;;;;15.80;12.65;;;;;;;15.29;68.13;102636.66;5021293;28;20052;-63
2023/04/17 10:13:00;;;;;;;15.55;13.43;;;;;;;14.82;70.79;102631.47;5017065;28;20303;-63
2023/04/17 10:15:27;;;;;;;15.90;14.30;;;;;;;14.66;70.09;102632.78;5017275;28;20033;-63
2023/04/17 10:17:55;;;;;;;19.05;17.27;;;;;;;14.45;71.07;102631.06;5016181;28;20456;-63
2023/04/17 10:20:23;;;;;;;18.08;16.27;;;;;;;14.61;71.79;102629.81;5024655;28;20625;-63
2023/04/17 10:22:53;;;;;;;19.63;17.77;;;;;;;14.56;73.33;102632.38;5025427;28;20031;-63
2023/04/17 10:25:23;;;;;;;16.27;14.73;;;;;;;14.35;70.28;102633.41;5017919;28;20029;-63
2023/04/17 10:27:57;;;;;;;19.90;18.00;;;;;;;13.85;75.56;102639.28;5023741;28;20080;-63
2023/04/17 10:30:25;;;;;;;17.70;15.85;;;;;;;14.23;75.83;102638.69;5016995;28;20044;-63
2023/04/17 10:33:12;;;;;;;21.20;19.13;;;;;;;14.32;77.87;102631.91;5020879;28;20112;-64
2023/04/17 10:35:37;;;;;;;16.58;14.82;;;;;;;14.24;71.54;102630.22;5022446;28;20116;-63
2023/04/17 10:38:05;;;;;;;19.73;17.83;;;;;;;13.91;77.04;102635.69;5023929;28;20428;-63
2023/04/17 10:40:33;;;;;;;18.55;16.48;;;;;;;14.05;71.49;102633.81;5016904;28;20567;-63
2023/04/17 10:43:21;;;;;;;19.13;17.10;;;;;;;13.69;75.56;102632.25;5024520;28;20411;-63
2023/04/17 10:45:58;;;;;;;13.80;10.65;;;;;;;14.02;71.53;102631.44;5019198;28;20025;-63
2023/04/17 10:48:37;;;;;;;16.63;14.93;;;;;;;13.64;71.89;102634.78;5021471;28;20036;-63
2023/04/17 10:51:20;;;;;;;17.02;15.10;;;;;;;13.27;73.41;102633.31;5023732;28;20379;-63
2023/04/17 10:53:48;;;;;;;15.85;13.85;;;;;;;13.25;72.41;102624.41;5016393;28;20480;-63
2023/04/17 10:56:18;;;;;;;18.05;16.35;;;;;;;13.34;73.58;102627.84;5024848;28;20034;-63
2023/04/17 10:58:57;;;;;;;13.55;10.00;;;;;;;13.83;70.17;102627.56;5024030;28;20025;-63
2023/04/17 11:01:25;;;;;;;18.25;16.42;;;;;;;13.49;72.37;102618.38;5024089;28;20044;-63
2023/04/17 11:03:51;;;;;;;15.63;14.00;;;;;;;13.82;69.80;102619.50;5024105;28;20061;-63
2023/04/17 11:06:16;;;;;;;17.10;15.32;;;;;;;13.88;70.34;102619.50;5021981;28;20061;-63